Terminal Aerodrome Forecast
Issued by NWS Billings, MT

Home | Current Version | Previous Version | Graphics & Text | Print | Product List | Glossary On
Versions: 1 2 3 4 5 6 7 8 9 10 11 12 13 14 15 16 17 18 19 20 21 22 23 24 25 26 27 28 29 30
000
FTUS45 KBYZ 240459 AAA
TAFMLS
TAF AMD
KMLS 240459Z 2405/2424 17011KT P6SM -SHRA SCT070 BKN100
     FM240600 29020G30KT P6SM -SHRA SCT030 BKN050
     FM241000 30017G27KT P6SM SCT050 BKN090
     FM241600 32020G30KT P6SM SCT150=

USA.gov is the U.S. government's official web portal to all federal, state and local government web resources and services.